Time;durP1;ratioP1;P1;durP2;ratioP2;P2;SDS_P1;SDS_P2;PMS_P1;PMS_P2;Temp;Humidity;BMP_temperature;BMP_pressure;BME280_temperature;BME280_humidity;BME280_pressure;Samples;Min_cycle;Max_cycle;Signal;HPM_P1;HPM_P2
2022/04/23 00:01:45;;;;;;;15.63;9.77;;;14.60;45.80;;;;;;4978020;28;20058;-44
2022/04/23 00:04:14;;;;;;;15.13;10.27;;;14.60;45.90;;;;;;4980540;28;20058;-45
2022/04/23 00:06:43;;;;;;;13.05;9.18;;;14.50;45.90;;;;;;4985709;28;20069;-44
2022/04/23 00:09:11;;;;;;;14.10;9.40;;;14.50;45.90;;;;;;4980931;28;20054;-44
2022/04/23 00:11:39;;;;;;;14.27;10.27;;;14.50;46.00;;;;;;4980199;28;20125;-44
2022/04/23 00:14:08;;;;;;;14.88;10.15;;;14.50;46.00;;;;;;4984412;28;20495;-44
2022/04/23 00:16:35;;;;;;;12.75;9.50;;;14.40;46.00;;;;;;4983939;28;20418;-44
2022/04/23 00:19:03;;;;;;;14.48;10.73;;;14.40;46.00;;;;;;4982414;28;20959;-44
2022/04/23 00:21:32;;;;;;;17.52;11.27;;;14.40;46.20;;;;;;4979113;28;20060;-44
2022/04/23 00:23:59;;;;;;;16.30;11.55;;;14.40;46.30;;;;;;4985131;28;20062;-44
2022/04/23 00:26:26;;;;;;;16.42;11.57;;;14.40;46.40;;;;;;4982674;28;20065;-46
2022/04/23 00:28:54;;;;;;;16.10;10.90;;;14.30;46.40;;;;;;4983788;28;20058;-49
2022/04/23 00:31:24;;;;;;;16.98;11.55;;;14.30;46.50;;;;;;4980513;28;20582;-44
2022/04/23 00:33:52;;;;;;;15.13;11.48;;;14.30;46.70;;;;;;4981612;28;20065;-44
2022/04/23 00:36:23;;;;;;;17.05;12.02;;;14.30;46.70;;;;;;4983560;28;20062;-44
2022/04/23 00:38:52;;;;;;;19.25;11.10;;;14.30;46.80;;;;;;4983894;28;20517;-46
2022/04/23 00:44:06;;;;;;;17.70;12.02;;;14.20;46.80;;;;;;4983767;28;20057;-44
2022/04/23 00:46:35;;;;;;;21.60;13.35;;;14.20;46.90;;;;;;4983467;28;20486;-44
2022/04/23 00:49:05;;;;;;;17.63;12.50;;;14.20;47.00;;;;;;4982311;28;20053;-45
2022/04/23 00:51:34;;;;;;;18.02;12.75;;;14.20;47.10;;;;;;4979977;28;20053;-44
2022/04/23 00:54:07;;;;;;;18.58;13.50;;;14.10;47.10;;;;;;4984344;28;20050;-44
2022/04/23 00:56:35;;;;;;;18.88;11.90;;;14.10;47.40;;;;;;4983094;28;20051;-44
2022/04/23 00:59:05;;;;;;;15.30;10.93;;;14.10;47.30;;;;;;4982120;28;20054;-44
2022/04/23 01:01:32;;;;;;;15.32;11.48;;;14.00;47.40;;;;;;4979086;28;20069;-44
2022/04/23 01:04:02;;;;;;;15.57;11.52;;;14.00;47.40;;;;;;4980986;28;20058;-44
2022/04/23 01:06:33;;;;;;;17.52;11.52;;;14.00;47.50;;;;;;4983479;28;20061;-44
2022/04/23 01:09:04;;;;;;;19.13;11.93;;;14.00;47.50;;;;;;4980105;28;20478;-44
2022/04/23 01:11:32;;;;;;;19.65;13.18;;;13.90;47.60;;;;;;4979746;28;20058;-44
2022/04/23 01:14:00;;;;;;;18.80;13.68;;;13.90;47.70;;;;;;4983120;28;20058;-45
2022/04/23 01:16:27;;;;;;;21.10;14.23;;;13.90;47.80;;;;;;4982976;28;20054;-44
2022/04/23 01:18:54;;;;;;;17.77;12.48;;;13.90;47.80;;;;;;4980863;28;20054;-44
2022/04/23 01:21:23;;;;;;;19.05;13.77;;;13.80;47.90;;;;;;4980709;28;20070;-44
2022/04/23 01:23:53;;;;;;;18.48;13.65;;;13.80;48.10;;;;;;4982763;28;20065;-45
2022/04/23 01:26:28;;;;;;;21.42;14.43;;;13.80;48.20;;;;;;4982709;28;20061;-44
2022/04/23 01:28:57;;;;;;;16.98;12.30;;;13.70;48.30;;;;;;4982484;28;20046;-44
2022/04/23 01:31:24;;;;;;;21.23;14.88;;;13.70;48.10;;;;;;4980547;28;20379;-47
2022/04/23 01:33:52;;;;;;;17.33;12.73;;;13.70;48.40;;;;;;4980490;28;20069;-44
2022/04/23 01:36:20;;;;;;;17.30;12.40;;;13.60;48.40;;;;;;4981538;28;20858;-44
2022/04/23 01:38:49;;;;;;;22.65;14.02;;;13.60;48.40;;;;;;4977951;28;20054;-44
2022/04/23 01:41:16;;;;;;;23.38;15.48;;;13.60;48.50;;;;;;4981506;28;20398;-44
2022/04/23 01:43:43;;;;;;;22.60;15.60;;;13.60;48.60;;;;;;4982036;28;20054;-44
2022/04/23 01:46:11;;;;;;;20.90;14.48;;;13.50;48.70;;;;;;4981739;28;20058;-45
2022/04/23 01:48:39;;;;;;;16.67;12.85;;;13.50;48.70;;;;;;4978982;28;20070;-44
2022/04/23 01:51:07;;;;;;;21.58;14.45;;;13.50;48.70;;;;;;4980433;28;20054;-46
2022/04/23 01:53:34;;;;;;;20.80;14.52;;;13.50;48.80;;;;;;4978649;28;20418;-45
2022/04/23 01:56:03;;;;;;;18.65;13.20;;;13.40;48.80;;;;;;4980437;28;20054;-44
2022/04/23 01:58:30;;;;;;;19.35;13.40;;;13.40;48.80;;;;;;4982159;28;20054;-44
2022/04/23 02:00:59;;;;;;;17.63;12.95;;;13.40;48.80;;;;;;4979176;28;20498;-44
2022/04/23 02:03:29;;;;;;;18.20;12.75;;;13.40;48.80;;;;;;4976418;28;20054;-44
2022/04/23 02:05:57;;;;;;;17.02;12.45;;;13.30;48.80;;;;;;4981091;28;20498;-45
2022/04/23 02:08:24;;;;;;;18.02;12.52;;;13.30;48.90;;;;;;4982227;28;20058;-45
2022/04/23 02:10:52;;;;;;;23.95;15.48;;;13.30;48.90;;;;;;4982967;28;20054;-45
2022/04/23 02:13:21;;;;;;;24.38;16.50;;;13.30;49.10;;;;;;4979712;28;20061;-45
2022/04/23 02:15:48;;;;;;;19.67;14.43;;;13.30;49.50;;;;;;4981271;28;20054;-44
2022/04/23 02:18:16;;;;;;;20.92;14.57;;;13.20;49.20;;;;;;4979469;28;20494;-44
2022/04/23 02:20:44;;;;;;;22.88;15.18;;;13.20;49.30;;;;;;4980116;28;20061;-44
2022/04/23 02:23:12;;;;;;;22.77;15.13;;;13.20;49.40;;;;;;4979647;28;20058;-45
2022/04/23 02:25:39;;;;;;;22.02;15.00;;;13.20;49.50;;;;;;4981424;28;20422;-45
2022/04/23 02:28:06;;;;;;;17.95;13.35;;;13.10;49.50;;;;;;4980537;28;20061;-44
2022/04/23 02:30:36;;;;;;;21.60;15.10;;;13.10;49.50;;;;;;4981053;28;20058;-45
2022/04/23 02:33:03;;;;;;;19.80;14.55;;;13.10;49.60;;;;;;4977654;28;20061;-47
2022/04/23 02:35:34;;;;;;;19.67;14.45;;;13.00;49.60;;;;;;4981680;28;20058;-45
2022/04/23 02:38:02;;;;;;;22.08;14.98;;;13.00;49.60;;;;;;4978957;28;20054;-46
2022/04/23 02:40:30;;;;;;;22.05;15.38;;;13.00;49.80;;;;;;4981133;28;20065;-44
2022/04/23 02:42:58;;;;;;;18.58;13.35;;;13.00;49.80;;;;;;4978852;28;20069;-44
2022/04/23 02:45:27;;;;;;;19.90;13.85;;;12.90;49.80;;;;;;4981616;28;20065;-45
2022/04/23 02:47:57;;;;;;;23.02;16.55;;;12.90;49.80;;;;;;4979006;28;20453;-44
2022/04/23 02:50:26;;;;;;;19.35;13.77;;;12.90;50.00;;;;;;4981942;28;20054;-44
2022/04/23 02:52:56;;;;;;;20.60;14.25;;;12.90;49.90;;;;;;4978533;28;20693;-46
2022/04/23 02:55:24;;;;;;;17.63;12.88;;;12.80;49.90;;;;;;4982476;28;20069;-44
2022/04/23 02:57:52;;;;;;;22.33;15.10;;;12.80;49.90;;;;;;4980346;28;20402;-44
2022/04/23 03:00:20;;;;;;;23.25;15.88;;;12.80;50.00;;;;;;4978353;28;20058;-45
2022/04/23 03:02:48;;;;;;;20.63;14.32;;;12.70;50.10;;;;;;4978327;28;20054;-44
2022/04/23 03:05:17;;;;;;;22.38;15.00;;;12.70;50.20;;;;;;4979041;28;20418;-44
2022/04/23 03:07:45;;;;;;;21.50;15.20;;;12.80;50.50;;;;;;4974893;28;20065;-44
2022/04/23 03:10:16;;;;;;;21.25;14.90;;;12.70;50.50;;;;;;4980797;28;20517;-43
2022/04/23 03:12:43;;;;;;;21.90;14.85;;;12.70;50.50;;;;;;4977709;28;20073;-45
2022/04/23 03:15:13;;;;;;;22.90;14.52;;;12.60;50.50;;;;;;4981934;28;20058;-44
2022/04/23 03:17:40;;;;;;;22.27;14.45;;;12.60;50.50;;;;;;4979995;28;20058;-44
2022/04/23 03:20:12;;;;;;;21.92;15.05;;;12.60;50.50;;;;;;4975768;28;20054;-43
2022/04/23 03:22:42;;;;;;;21.05;15.13;;;12.60;50.50;;;;;;4977835;28;20065;-47
2022/04/23 03:25:11;;;;;;;22.63;15.07;;;12.60;50.50;;;;;;4981110;28;20418;-43
2022/04/23 03:27:38;;;;;;;23.98;14.63;;;12.60;50.50;;;;;;4981807;28;20061;-44
2022/04/23 03:30:07;;;;;;;20.75;14.05;;;12.60;50.50;;;;;;4979241;28;20120;-44
2022/04/23 03:32:35;;;;;;;21.85;14.48;;;12.60;50.60;;;;;;4979135;28;20054;-45
2022/04/23 03:35:04;;;;;;;19.58;14.30;;;12.60;50.60;;;;;;4982263;28;20054;-45
2022/04/23 03:37:33;;;;;;;20.83;13.85;;;12.60;50.60;;;;;;4983583;28;20054;-44
2022/04/23 03:40:06;;;;;;;24.08;16.48;;;12.60;50.60;;;;;;4985814;28;20050;-44
2022/04/23 03:42:35;;;;;;;21.85;15.10;;;12.60;50.80;;;;;;4984101;28;20422;-44
2022/04/23 03:45:02;;;;;;;19.85;14.57;;;12.60;50.70;;;;;;4985361;28;20069;-44
2022/04/23 03:47:31;;;;;;;18.67;12.88;;;12.60;50.70;;;;;;4983843;28;20062;-44
2022/04/23 03:49:58;;;;;;;21.77;14.23;;;12.50;50.60;;;;;;4983906;28;20085;-44
2022/04/23 03:52:26;;;;;;;22.38;14.57;;;12.50;50.60;;;;;;4983773;28;20058;-46
2022/04/23 03:54:53;;;;;;;20.70;14.07;;;12.50;50.60;;;;;;4982738;28;20050;-44
2022/04/23 03:57:22;;;;;;;23.25;15.18;;;12.50;50.80;;;;;;4983061;28;20421;-44
2022/04/23 03:59:49;;;;;;;19.73;14.32;;;12.50;50.90;;;;;;4980374;28;20050;-44
2022/04/23 04:02:17;;;;;;;23.95;16.30;;;12.50;50.90;;;;;;4981449;28;20077;-44
2022/04/23 04:04:45;;;;;;;20.02;13.80;;;12.40;50.90;;;;;;4980190;28;20525;-44
2022/04/23 04:07:19;;;;;;;21.38;15.25;;;12.50;51.00;;;;;;4979050;28;20069;-44
2022/04/23 04:09:47;;;;;;;21.92;13.95;;;12.40;51.10;;;;;;4984355;28;20058;-44
2022/04/23 04:12:14;;;;;;;18.50;12.80;;;12.40;50.90;;;;;;4981447;28;20533;-45
2022/04/23 04:14:43;;;;;;;22.27;14.90;;;12.40;50.90;;;;;;4981029;28;20054;-46
2022/04/23 04:17:14;;;;;;;21.38;14.48;;;12.40;51.00;;;;;;4975121;28;20054;-44
2022/04/23 04:19:42;;;;;;;23.23;15.68;;;12.40;51.10;;;;;;4982156;28;20046;-44
2022/04/23 04:22:09;;;;;;;19.60;14.52;;;12.40;51.10;;;;;;4981358;28;20088;-43
2022/04/23 04:24:37;;;;;;;18.65;13.60;;;12.40;51.20;;;;;;4982031;28;20513;-48
2022/04/23 04:27:06;;;;;;;17.45;12.52;;;12.30;51.20;;;;;;4981850;28;20057;-44
2022/04/23 04:29:33;;;;;;;21.55;14.90;;;12.30;51.20;;;;;;4984283;28;20057;-44
2022/04/23 04:32:03;;;;;;;20.73;14.68;;;12.30;51.30;;;;;;4980584;28;20061;-45
2022/04/23 04:34:31;;;;;;;20.90;15.00;;;12.30;51.40;;;;;;4973889;28;20069;-44
2022/04/23 04:37:06;;;;;;;22.88;15.85;;;12.30;51.50;;;;;;4980133;28;20065;-45
2022/04/23 04:39:33;;;;;;;22.58;15.38;;;12.30;51.60;;;;;;4974426;28;20050;-44
2022/04/23 04:42:02;;;;;;;19.70;13.43;;;12.30;51.50;;;;;;4980049;28;20405;-44
2022/04/23 04:44:30;;;;;;;18.35;12.93;;;12.30;51.60;;;;;;4981441;28;20422;-46
2022/04/23 04:46:58;;;;;;;19.17;13.50;;;12.30;51.60;;;;;;4980250;28;20058;-43
2022/04/23 04:49:27;;;;;;;21.80;15.02;;;12.30;51.70;;;;;;4979983;28;20486;-44
2022/04/23 04:51:55;;;;;;;18.10;13.10;;;12.30;51.80;;;;;;4980214;28;21044;-47
2022/04/23 04:54:22;;;;;;;21.10;14.98;;;12.30;51.80;;;;;;4982759;28;20405;-44
2022/04/23 04:56:50;;;;;;;22.58;14.75;;;12.30;52.00;;;;;;4983973;28;20054;-44
2022/04/23 04:59:18;;;;;;;21.30;15.18;;;12.30;52.00;;;;;;4980073;28;20054;-44
2022/04/23 05:01:45;;;;;;;23.58;16.65;;;12.30;52.10;;;;;;4979017;28;20058;-44
2022/04/23 05:04:13;;;;;;;24.33;15.57;;;12.30;52.20;;;;;;4978180;28;20061;-45
2022/04/23 05:06:42;;;;;;;23.73;16.98;;;12.30;52.30;;;;;;4978563;28;20054;-45
2022/04/23 05:09:10;;;;;;;22.85;15.45;;;12.30;52.50;;;;;;4982873;28;20061;-44
2022/04/23 05:11:37;;;;;;;20.35;14.43;;;12.30;52.50;;;;;;4979718;28;20050;-46
2022/04/23 05:14:06;;;;;;;19.73;14.10;;;12.30;52.60;;;;;;4981555;28;20057;-46
2022/04/23 05:16:34;;;;;;;23.98;16.00;;;12.40;52.70;;;;;;4981096;28;20062;-44
2022/04/23 05:19:01;;;;;;;17.80;13.38;;;12.40;52.80;;;;;;4978257;28;20057;-44
2022/04/23 05:21:29;;;;;;;20.35;14.07;;;12.40;52.80;;;;;;4979613;28;20502;-49
2022/04/23 05:23:58;;;;;;;19.90;14.57;;;12.40;52.80;;;;;;4980242;28;20065;-45
2022/04/23 05:26:25;;;;;;;20.48;14.25;;;12.50;52.90;;;;;;4982035;28;20062;-44
2022/04/23 05:28:53;;;;;;;24.00;15.27;;;12.50;52.80;;;;;;4982397;28;20054;-43
2022/04/23 05:31:21;;;;;;;18.65;13.27;;;12.50;52.80;;;;;;4979786;28;20061;-44
2022/04/23 05:33:48;;;;;;;24.65;13.98;;;12.60;52.90;;;;;;4976405;28;20414;-44
2022/04/23 05:36:16;;;;;;;20.35;14.82;;;12.60;53.00;;;;;;4983097;28;20058;-44
2022/04/23 05:38:43;;;;;;;20.63;14.35;;;12.60;53.10;;;;;;4981345;28;20053;-44
2022/04/23 05:41:12;;;;;;;21.13;14.68;;;12.70;53.10;;;;;;4982515;28;20057;-44
2022/04/23 05:43:41;;;;;;;20.48;13.63;;;12.70;53.20;;;;;;4977981;28;20046;-44
2022/04/23 05:46:08;;;;;;;22.27;14.93;;;12.80;53.20;;;;;;4982862;28;20065;-44
2022/04/23 05:48:37;;;;;;;19.48;14.30;;;12.80;53.20;;;;;;4977912;28;20065;-44
2022/04/23 05:51:04;;;;;;;18.75;13.40;;;12.90;53.30;;;;;;4979996;28;20434;-44
2022/04/23 05:53:32;;;;;;;19.63;13.70;;;12.90;53.20;;;;;;4978773;28;20512;-44
2022/04/23 05:55:59;;;;;;;18.75;13.05;;;13.00;53.30;;;;;;4979600;28;20054;-44
2022/04/23 05:58:28;;;;;;;17.52;13.20;;;13.10;53.20;;;;;;4982060;28;20058;-44
2022/04/23 06:00:56;;;;;;;17.00;11.95;;;13.10;53.20;;;;;;4977655;28;20047;-45
2022/04/23 06:03:23;;;;;;;16.67;12.15;;;13.20;53.10;;;;;;4968755;28;20066;-44
2022/04/23 06:05:51;;;;;;;17.25;11.88;;;13.30;53.10;;;;;;4976894;28;20411;-46
2022/04/23 06:08:19;;;;;;;15.35;11.45;;;13.30;53.10;;;;;;4978760;28;20054;-44
2022/04/23 06:10:46;;;;;;;15.27;10.75;;;13.40;53.00;;;;;;4981729;28;20054;-44
2022/04/23 06:13:14;;;;;;;18.20;12.82;;;13.40;52.90;;;;;;4978411;28;20062;-43
2022/04/23 06:15:43;;;;;;;16.02;11.75;;;13.50;52.90;;;;;;4975638;28;20058;-45
2022/04/23 06:18:10;;;;;;;18.08;12.40;;;13.60;52.90;;;;;;4981128;28;20430;-43
2022/04/23 06:20:38;;;;;;;14.43;10.82;;;13.60;52.80;;;;;;4981231;28;20054;-44
2022/04/23 06:23:06;;;;;;;13.85;10.52;;;13.70;52.70;;;;;;4975588;28;20514;-44
2022/04/23 06:25:33;;;;;;;37.72;20.95;;;13.80;52.60;;;;;;4980312;28;20053;-45
2022/04/23 06:28:01;;;;;;;18.25;12.68;;;13.80;52.50;;;;;;4973843;28;20058;-46
2022/04/23 06:30:28;;;;;;;17.00;11.45;;;13.90;52.50;;;;;;4979546;28;20062;-46
2022/04/23 06:32:57;;;;;;;14.55;10.50;;;13.90;52.30;;;;;;4979010;28;20054;-44
2022/04/23 06:35:25;;;;;;;15.52;10.50;;;14.00;52.30;;;;;;4980783;28;20064;-45
2022/04/23 06:37:54;;;;;;;16.65;11.73;;;14.10;52.20;;;;;;4977897;28;20058;-45
2022/04/23 06:40:21;;;;;;;15.63;11.30;;;14.20;52.10;;;;;;4981870;28;20054;-44
2022/04/23 06:42:49;;;;;;;14.98;10.90;;;14.20;52.00;;;;;;4978191;28;20428;-46
2022/04/23 06:45:17;;;;;;;13.60;10.18;;;14.20;52.00;;;;;;4979555;28;20402;-45
2022/04/23 06:47:44;;;;;;;15.13;11.27;;;14.30;51.80;;;;;;4980071;28;20058;-44
2022/04/23 06:50:13;;;;;;;15.23;10.13;;;14.40;51.80;;;;;;4982247;28;20054;-44
2022/04/23 06:52:40;;;;;;;13.95;10.60;;;14.50;51.70;;;;;;4981458;28;20050;-47
2022/04/23 06:55:09;;;;;;;13.70;10.43;;;14.50;51.50;;;;;;4980573;28;20050;-45
2022/04/23 06:57:44;;;;;;;13.27;9.60;;;14.50;51.30;;;;;;4980688;28;20066;-44
2022/04/23 07:00:13;;;;;;;14.13;10.57;;;14.60;51.20;;;;;;4981256;28;20081;-44
2022/04/23 07:02:40;;;;;;;13.18;9.70;;;14.70;51.20;;;;;;4977407;28;20417;-43
2022/04/23 07:05:09;;;;;;;17.38;10.43;;;14.70;51.20;;;;;;4981003;28;20064;-44
2022/04/23 07:07:38;;;;;;;13.35;9.70;;;14.80;51.20;;;;;;4980901;28;20065;-44
2022/04/23 07:10:06;;;;;;;12.18;9.10;;;14.80;51.10;;;;;;4978308;28;20062;-43
2022/04/23 07:12:34;;;;;;;13.82;8.70;;;14.90;51.00;;;;;;4979861;28;20411;-44
2022/04/23 07:15:03;;;;;;;12.32;9.07;;;14.90;51.10;;;;;;4981679;28;20054;-43
2022/04/23 07:17:31;;;;;;;13.45;9.80;;;15.00;50.80;;;;;;4979488;28;20057;-44
2022/04/23 07:19:58;;;;;;;12.35;9.50;;;15.00;50.60;;;;;;4980414;28;20066;-43
2022/04/23 07:22:26;;;;;;;12.18;9.00;;;15.10;50.50;;;;;;4975734;28;20050;-43
2022/04/23 07:24:54;;;;;;;14.30;9.65;;;15.10;50.30;;;;;;4980957;28;20066;-44
2022/04/23 07:27:23;;;;;;;12.95;9.45;;;15.20;50.20;;;;;;4980637;28;20062;-44
2022/04/23 07:29:51;;;;;;;13.73;9.20;;;15.20;50.00;;;;;;4976810;28;20053;-44
2022/04/23 07:32:20;;;;;;;14.60;9.18;;;15.30;50.00;;;;;;4974893;28;20055;-43
2022/04/23 07:37:33;;;;;;;13.15;8.32;;;15.40;50.00;;;;;;4982932;28;20502;-46
2022/04/23 07:40:05;;;;;;;11.20;8.60;;;15.40;49.90;;;;;;4977967;28;20069;-44
2022/04/23 07:42:33;;;;;;;15.18;10.25;;;15.50;49.90;;;;;;4973725;28;20050;-44
2022/04/23 07:45:00;;;;;;;13.60;10.15;;;15.50;49.80;;;;;;4973909;28;20061;-44
2022/04/23 07:47:29;;;;;;;12.98;8.98;;;15.60;49.50;;;;;;4981764;28;20069;-44
2022/04/23 07:49:58;;;;;;;11.50;8.80;;;15.60;49.40;;;;;;4975297;28;20536;-45
2022/04/23 07:52:25;;;;;;;12.13;9.32;;;15.70;49.30;;;;;;4976976;28;20054;-44
2022/04/23 07:54:53;;;;;;;11.93;9.07;;;15.70;49.30;;;;;;4979100;28;20055;-48
2022/04/23 07:57:24;;;;;;;13.35;9.25;;;15.80;49.20;;;;;;4978606;28;20053;-45
2022/04/23 07:59:51;;;;;;;14.70;9.35;;;15.80;48.80;;;;;;4977765;28;20065;-44
2022/04/23 08:02:19;;;;;;;12.63;8.55;;;15.90;48.90;;;;;;4975526;28;21341;-44
2022/04/23 08:04:47;;;;;;;13.68;9.23;;;15.90;49.00;;;;;;4976077;28;20134;-44
2022/04/23 08:07:15;;;;;;;14.48;8.95;;;16.00;48.90;;;;;;4977364;28;20569;-44
2022/04/23 08:09:42;;;;;;;10.70;8.20;;;16.00;48.80;;;;;;4981561;28;20054;-43
2022/04/23 08:12:11;;;;;;;13.90;8.57;;;16.00;48.60;;;;;;4977556;28;20517;-45
2022/04/23 08:14:39;;;;;;;11.73;8.25;;;16.10;48.50;;;;;;4978937;28;20057;-45
2022/04/23 08:17:07;;;;;;;10.30;7.72;;;16.10;48.40;;;;;;4979784;28;20058;-44
2022/04/23 08:19:34;;;;;;;11.73;8.57;;;16.20;48.50;;;;;;4977888;28;20510;-44
2022/04/23 08:22:02;;;;;;;10.00;8.25;;;16.20;48.50;;;;;;4979804;28;20065;-44
2022/04/23 08:24:30;;;;;;;13.10;8.55;;;16.20;48.30;;;;;;4984376;28;20054;-43
2022/04/23 08:26:58;;;;;;;12.35;8.15;;;16.30;47.90;;;;;;4980125;28;20061;-44
2022/04/23 08:32:12;;;;;;;18.58;8.52;;;16.30;47.70;;;;;;4986320;28;20049;-45
2022/04/23 08:34:39;;;;;;;11.68;7.88;;;16.40;47.60;;;;;;4983225;28;20062;-44
2022/04/23 08:37:07;;;;;;;10.85;7.70;;;16.40;47.60;;;;;;4983370;28;20058;-43
2022/04/23 08:39:34;;;;;;;10.30;7.53;;;16.40;47.60;;;;;;4979514;28;20065;-44
2022/04/23 08:42:05;;;;;;;11.73;7.38;;;16.50;47.50;;;;;;4979173;28;20077;-45
2022/04/23 08:44:33;;;;;;;11.82;7.35;;;16.50;47.30;;;;;;4982766;28;20069;-44
2022/04/23 08:47:01;;;;;;;9.80;7.30;;;16.50;47.30;;;;;;4983544;28;20054;-44
2022/04/23 08:49:32;;;;;;;14.82;7.50;;;16.60;47.30;;;;;;4979048;28;20058;-43
2022/04/23 08:52:12;;;;;;;10.50;6.50;;;16.60;47.10;;;;;;4980870;28;20489;-44
2022/04/23 08:54:40;;;;;;;7.97;6.22;;;16.60;47.30;;;;;;4977680;28;20046;-44
2022/04/23 08:57:08;;;;;;;8.93;6.55;;;16.70;47.20;;;;;;4978754;28;20057;-44
2022/04/23 08:59:36;;;;;;;9.00;5.88;;;16.70;47.20;;;;;;4982980;28;20054;-44
2022/04/23 09:02:09;;;;;;;8.15;6.55;;;16.80;47.20;;;;;;4982372;28;20054;-46
2022/04/23 09:04:42;;;;;;;8.27;6.35;;;16.80;47.20;;;;;;4980424;28;20387;-44
2022/04/23 09:07:19;;;;;;;9.35;6.25;;;16.90;46.90;;;;;;4982802;28;20058;-44
2022/04/23 09:09:49;;;;;;;10.20;6.13;;;16.90;46.70;;;;;;4978583;28;20061;-44
2022/04/23 09:12:18;;;;;;;8.52;6.35;;;17.00;46.80;;;;;;4979171;28;20053;-44
2022/04/23 09:14:46;;;;;;;10.57;6.10;;;17.00;46.90;;;;;;4983189;28;20054;-44
2022/04/23 09:25:40;;;;;;;8.90;7.00;;;17.20;46.70;;;;;;4986104;28;20056;-44
2022/04/23 09:28:18;;;;;;;13.02;7.70;;;17.30;46.80;;;;;;4980773;28;20422;-44
2022/04/23 09:30:47;;;;;;;8.57;6.43;;;17.30;46.40;;;;;;4979902;28;20073;-44
2022/04/23 09:33:15;;;;;;;10.18;6.60;;;17.40;46.80;;;;;;4977386;28;20058;-44
2022/04/23 09:35:57;;;;;;;9.98;6.93;;;17.40;46.60;;;;;;4982400;28;20057;-45
2022/04/23 09:38:26;;;;;;;10.32;7.53;;;17.40;46.20;;;;;;4981079;28;20057;-43
2022/04/23 09:40:55;;;;;;;10.63;7.10;;;17.50;46.40;;;;;;4980774;28;20395;-44
2022/04/23 09:43:28;;;;;;;21.38;11.13;;;17.60;46.20;;;;;;4978924;28;20608;-43
2022/04/23 09:46:03;;;;;;;22.65;11.95;;;17.60;46.10;;;;;;4982542;28;20054;-44
2022/04/23 09:48:31;;;;;;;12.45;8.43;;;17.60;45.50;;;;;;4978865;28;20054;-44
2022/04/23 09:51:00;;;;;;;13.38;8.23;;;17.60;45.40;;;;;;4983326;28;20069;-45
2022/04/23 09:53:28;;;;;;;8.77;6.88;;;17.60;45.30;;;;;;4981609;28;20050;-48
2022/04/23 09:56:00;;;;;;;10.80;7.78;;;17.60;45.50;;;;;;4980747;28;20050;-43
2022/04/23 09:58:29;;;;;;;10.82;7.78;;;17.70;45.50;;;;;;4981052;28;20399;-44
2022/04/23 10:00:57;;;;;;;12.85;7.95;;;17.70;45.30;;;;;;4981525;28;20060;-45
2022/04/23 10:03:30;;;;;;;16.77;8.05;;;17.70;45.40;;;;;;4980349;28;20046;-46
2022/04/23 10:05:58;;;;;;;8.77;6.55;;;17.70;45.20;;;;;;4981766;28;20540;-45
2022/04/23 10:08:27;;;;;;;10.82;7.35;;;17.80;45.20;;;;;;4982356;28;20050;-44
2022/04/23 10:10:56;;;;;;;13.82;8.70;;;17.80;45.30;;;;;;4981153;28;20053;-45
2022/04/23 10:13:27;;;;;;;8.85;6.30;;;17.80;45.20;;;;;;4981915;28;20057;-45
2022/04/23 10:15:55;;;;;;;10.85;7.93;;;17.90;45.10;;;;;;4979334;28;20058;-46
2022/04/23 10:18:23;;;;;;;9.55;7.35;;;17.90;45.10;;;;;;4981235;28;20054;-44
2022/04/23 10:20:56;;;;;;;16.85;8.40;;;18.00;45.10;;;;;;4980580;28;20059;-44
2022/04/23 10:23:45;;;;;;;9.95;7.10;;;18.00;44.70;;;;;;4980816;28;20054;-47
2022/04/23 10:26:33;;;;;;;11.35;8.38;;;18.00;44.40;;;;;;4980654;28;20054;-43
2022/04/23 10:29:01;;;;;;;13.20;8.73;;;18.00;44.60;;;;;;4982153;28;20054;-44
2022/04/23 10:31:29;;;;;;;12.60;8.30;;;18.10;44.60;;;;;;4979203;28;20513;-44
2022/04/23 10:33:56;;;;;;;15.90;8.73;;;18.00;44.60;;;;;;4980786;28;20073;-44
2022/04/23 10:36:24;;;;;;;19.90;9.68;;;18.10;44.70;;;;;;4981715;28;20065;-43
2022/04/23 10:39:20;;;;;;;12.57;9.15;;;18.10;44.40;;;;;;4983181;28;20054;-44
2022/04/23 10:41:47;;;;;;;12.45;9.13;;;18.10;44.20;;;;;;4979902;28;20081;-44
2022/04/23 10:44:22;;;;;;;12.80;8.60;;;18.10;44.10;;;;;;4980965;28;20383;-44
2022/04/23 10:46:51;;;;;;;14.55;8.48;;;18.20;44.10;;;;;;4979505;28;20065;-44
2022/04/23 10:49:20;;;;;;;12.40;8.80;;;18.20;44.30;;;;;;4980577;28;20058;-45
2022/04/23 10:51:50;;;;;;;14.88;9.93;;;18.20;44.30;;;;;;4981140;28;20062;-44
2022/04/23 10:54:21;;;;;;;13.48;9.18;;;18.30;44.20;;;;;;4980909;28;20050;-44
2022/04/23 10:56:53;;;;;;;14.32;9.20;;;18.30;44.20;;;;;;4981034;28;20058;-44
2022/04/23 10:59:44;;;;;;;12.77;8.38;;;18.40;43.90;;;;;;4980778;28;20062;-44
2022/04/23 11:02:29;;;;;;;11.05;8.35;;;18.40;43.90;;;;;;4978638;28;20062;-44
2022/04/23 11:13:26;;;;;;;12.00;8.50;;;18.70;44.00;;;;;;4978593;28;20057;-45
2022/04/23 11:16:14;;;;;;;9.93;7.97;;;18.80;43.50;;;;;;4980877;28;20050;-45
2022/04/23 11:18:42;;;;;;;11.70;7.43;;;18.80;43.60;;;;;;4980183;28;20054;-45
2022/04/23 11:21:16;;;;;;;11.38;8.38;;;18.90;43.60;;;;;;4981672;28;20055;-47
2022/04/23 11:23:47;;;;;;;11.52;8.10;;;19.00;43.20;;;;;;4977807;28;20505;-44
2022/04/23 11:26:17;;;;;;;11.23;7.75;;;19.00;43.10;;;;;;4978142;28;20525;-44
2022/04/23 11:28:46;;;;;;;13.30;8.40;;;19.10;43.30;;;;;;4979183;28;20058;-45
2022/04/23 11:31:15;;;;;;;11.02;8.25;;;19.20;43.10;;;;;;4980456;28;20061;-47
2022/04/23 11:33:54;;;;;;;10.90;8.25;;;19.20;42.60;;;;;;4979069;28;20050;-47
2022/04/23 11:36:26;;;;;;;10.30;7.53;;;19.20;42.00;;;;;;4981067;28;20066;-44
2022/04/23 11:38:53;;;;;;;13.35;8.15;;;19.30;42.10;;;;;;4981312;28;20061;-45
2022/04/23 11:41:33;;;;;;;10.02;7.40;;;19.30;42.30;;;;;;4978085;28;20533;-44
2022/04/23 11:44:13;;;;;;;11.10;7.32;;;19.30;41.80;;;;;;4980419;28;20058;-44
2022/04/23 11:46:44;;;;;;;17.38;10.60;;;19.30;41.90;;;;;;4974696;28;20062;-47
2022/04/23 11:49:26;;;;;;;16.92;10.73;;;19.30;41.80;;;;;;4979537;28;20058;-44
2022/04/23 11:52:00;;;;;;;11.40;7.90;;;19.30;41.70;;;;;;4980724;28;20054;-45
2022/04/23 11:54:34;;;;;;;10.35;6.97;;;19.40;41.70;;;;;;4979236;28;20050;-44
2022/04/23 11:57:04;;;;;;;12.50;6.85;;;19.40;41.40;;;;;;4979634;28;20054;-45
2022/04/23 11:59:38;;;;;;;11.52;7.10;;;19.40;41.90;;;;;;4981757;28;20058;-44
2022/04/23 12:02:08;;;;;;;12.30;7.90;;;19.40;41.80;;;;;;4983570;28;20422;-44
2022/04/23 12:04:42;;;;;;;10.00;7.60;;;19.40;41.60;;;;;;4982977;28;20058;-48
2022/04/23 12:07:10;;;;;;;;;;;19.40;41.40;;;;;;4984473;28;20057;-44
2022/04/23 12:09:47;;;;;;;11.32;7.78;;;19.50;41.70;;;;;;4985222;28;19943;-44
2022/04/23 12:12:20;;;;;;;12.07;8.75;;;19.50;41.60;;;;;;4981294;28;20062;-44
2022/04/23 12:14:49;;;;;;;12.02;8.40;;;19.60;41.70;;;;;;4985596;28;20054;-44
2022/04/23 12:17:23;;;;;;;15.07;9.90;;;19.60;41.60;;;;;;4983631;28;20062;-44
2022/04/23 12:19:51;;;;;;;14.70;10.45;;;19.60;41.40;;;;;;4984161;28;20064;-44
2022/04/23 12:22:26;;;;;;;13.30;9.23;;;19.60;41.10;;;;;;4981288;28;20073;-47
2022/04/23 12:25:08;;;;;;;12.52;9.13;;;19.60;41.20;;;;;;4983058;28;20422;-46
2022/04/23 12:27:57;;;;;;;15.63;9.55;;;19.60;41.10;;;;;;4983668;28;20058;-43
2022/04/23 12:41:39;;;;;;;15.10;9.63;;;19.60;41.40;;;;;;4981243;28;20073;-46
2022/04/23 12:44:21;;;;;;;13.90;8.98;;;19.60;41.10;;;;;;4984931;28;20069;-44
2022/04/23 12:46:58;;;;;;;16.50;9.88;;;19.50;40.80;;;;;;4980858;28;20053;-44
2022/04/23 12:49:44;;;;;;;17.63;10.75;;;19.50;41.00;;;;;;4982904;28;20506;-44
2022/04/23 12:52:15;;;;;;;15.73;9.40;;;19.50;41.10;;;;;;4980191;28;20051;-44
2022/04/23 12:54:42;;;;;;;18.65;11.50;;;19.50;41.20;;;;;;4982163;28;20405;-44
2022/04/23 12:57:16;;;;;;;26.95;14.30;;;19.50;41.20;;;;;;4983402;28;20057;-44
2022/04/23 12:59:45;;;;;;;20.73;14.35;;;19.60;41.70;;;;;;4984449;28;20601;-44
2022/04/23 13:02:12;;;;;;;23.35;15.43;;;19.60;41.90;;;;;;4979901;28;20054;-45
2022/04/23 13:04:39;;;;;;;22.73;15.43;;;19.70;41.80;;;;;;4980374;28;20058;-43
2022/04/23 13:09:52;;;;;;;25.48;17.90;;;19.80;41.70;;;;;;4988647;28;20057;-47
2022/04/23 13:12:19;;;;;;;23.02;16.27;;;19.90;41.60;;;;;;4981224;28;20074;-44
2022/04/23 13:14:48;;;;;;;23.77;15.15;;;19.90;41.40;;;;;;4983638;28;20054;-46
2022/04/23 13:17:16;;;;;;;21.80;14.60;;;19.90;41.20;;;;;;4982272;28;20069;-47
2022/04/23 13:19:43;;;;;;;20.08;13.75;;;19.90;41.10;;;;;;4982064;28;20061;-44
2022/04/23 13:22:11;;;;;;;18.10;13.40;;;19.90;41.30;;;;;;4978547;28;20069;-46